Latest Weather Observations for Bougainville Reef

IDQ60801

Issued at 9:02 pm EST Saturday 6 February 2016 (issued every 30 minutes, with the page automatically refreshed every 10 minutes)

About weather observations | Map of weather stations | Latest weather observations for QLD | Other Formats
Station Details ID: 200840 Name: BOUGAINVILLE REEF Lat: -15.49 Lon: 147.12 Height: 0.0 m
Data from the previous 72 hours. | See also: Recent months for locations in Queensland
Date/Time
EST
Temp
°C
App
Temp
°C
Dew
Point
Rel
Hum
%
Delta-T
°C
Wind Press
QNH
hPa
Press
MSL
hPa
Rain
since 9 am
mm
Dir
 
Spd
km/h
Gust
km/h
Spd
kts
Gust
kts
06/09:00pm 29.7 - - - - NW 30 35 16 19 1006.0 1005.9 -
06/08:30pm 29.6 - - - - NW 30 33 16 18 1005.7 - -
06/08:00pm 29.7 - - - - NNW 28 32 15 17 1005.2 1005.0 -
06/07:30pm 29.8 - - - - NNW 26 30 14 16 1004.5 - -
06/07:00pm 29.6 - - - - NW 30 35 16 19 1004.2 1004.2 -
06/06:30pm 29.8 - - - - NW 28 33 15 18 1003.9 - -
06/06:00pm 29.8 - - - - NW 30 33 16 18 1003.4 1003.2 -
06/05:30pm 30.0 - - - - NW 32 37 17 20 1003.1 - -
06/05:00pm 30.3 - - - - NNW 32 35 17 19 1002.7 1002.7 -
06/04:30pm 30.1 - - - - NW 32 35 17 19 1002.5 - -
06/04:00pm 30.0 - - - - NNW 32 37 17 20 1002.6 1002.6 -
06/03:30pm 30.0 - - - - NNW 33 35 18 19 1002.6 - -
06/03:00pm 29.9 - - - - NNW 28 35 15 19 1002.9 1003.1 -
06/02:30pm 30.1 - - - - NW 30 32 16 17 1003.2 - -
06/02:00pm 29.9 - - - - NW 30 33 16 18 1003.3 1003.4 -
06/01:30pm 29.9 - - - - NW 30 33 16 18 1003.6 - -
06/01:00pm 29.7 - - - - NW 32 33 17 18 1003.8 1004.0 -
06/12:30pm 30.0 - - - - NW 30 35 16 19 1004.1 - -
06/12:00pm 29.7 - - - - NW 33 41 18 22 1004.5 1004.5 -
06/11:30am 30.1 - - - - NW 32 35 17 19 1004.6 - -
06/11:00am 30.1 - - - - NNW 28 33 15 18 1004.8 1004.9 -
06/10:30am 30.2 - - - - NNW 26 30 14 16 1005.0 - -
06/10:00am 30.0 - - - - NW 28 35 15 19 1005.3 1005.3 -
06/09:30am 30.0 - - - - NW 28 33 15 18 1005.2 - -
06/09:00am 29.8 - - - - NW 30 30 16 16 1004.9 1004.8 -
06/08:30am 30.2 - - - - NW 28 32 15 17 1004.7 - -
06/08:00am 29.8 - - - - NW 30 32 16 17 1004.5 1004.4 -
06/07:30am 29.5 - - - - NW 30 35 16 19 1004.2 - -
06/07:00am 29.4 - - - - NW 28 32 15 17 1003.8 1003.6 -
06/06:30am 28.8 - - - - NW 30 35 16 19 1003.3 - -
06/06:00am 28.5 - - - - NW 28 43 15 23 1003.0 1003.1 -
06/05:30am 28.9 - - - - NW 30 43 16 23 1003.1 - -
06/05:00am 29.1 - - - - NNW 30 37 16 20 1002.6 1002.7 -
06/04:30am 29.2 - - - - NW 30 33 16 18 1002.2 - -
06/04:00am 29.3 - - - - NNW 35 41 19 22 1002.5 1002.3 -
06/03:30am 29.4 - - - - NNW 33 41 18 22 1002.4 - -
06/03:00am 29.5 - - - - NNW 33 37 18 20 1002.2 1002.2 -
06/02:30am 29.4 - - - - NNW 32 35 17 19 1002.1 - -
06/02:00am 29.3 - - - - NNW 33 35 18 19 1002.2 1002.3 -
06/01:30am 29.5 - - - - NNW 32 35 17 19 1002.6 - -
06/01:00am 29.4 - - - - NNW 30 33 16 18 1003.1 1003.2 -
06/12:30am 29.5 - - - - NNW 28 32 15 17 1003.4 - -
06/12:00am 29.5 - - - - NNW 28 32 15 17 1004.1 1004.3 -
 
Date/Time
EST
Temp
°C
App
Temp
°C
Dew
Point
Rel
Hum
%
Delta-T
°C
Wind Press
QNH
hPa
Press
MSL
hPa
Rain
since 9 am
mm
Dir
 
Spd
km/h
Gust
km/h
Spd
kts
Gust
kts
05/11:30pm 29.7 - - - - NNW 28 33 15 18 1004.5 - -
05/11:00pm 29.6 - - - - NNW 30 32 16 17 1004.9 1005.1 -
05/10:30pm 29.6 - - - - NNW 33 37 18 20 1005.4 - -
05/10:00pm 29.7 - - - - NNW 35 37 19 20 1005.1 1005.2 -
05/09:30pm 29.9 - - - - NNW 33 39 18 21 1005.2 - -
05/09:00pm 29.8 - - - - NNW 35 43 19 23 1005.2 1004.9 -
05/08:30pm 29.8 - - - - NNW 35 43 19 23 1004.8 - -
05/08:00pm 29.8 - - - - NNW 33 39 18 21 1004.4 1004.0 -
05/07:30pm 29.7 - - - - NNW 35 41 19 22 1003.8 - -
05/07:00pm 29.3 - - - - NNW 33 41 18 22 1003.6 1003.2 -
05/06:30pm 29.5 - - - - N 32 39 17 21 1003.0 - -
05/06:00pm 29.5 - - - - NNW 33 37 18 20 1002.8 1002.7 -
05/05:30pm 29.6 - - - - NNW 33 39 18 21 1002.6 - -
05/05:00pm 29.6 - - - - NNW 33 39 18 21 1002.4 1002.4 -
05/04:30pm 29.5 - - - - NNW 35 39 19 21 1002.4 - -
05/04:00pm 30.1 - - - - NNW 32 37 17 20 1002.5 1002.5 -
05/03:30pm 30.1 - - - - NNW 30 35 16 19 1002.7 - -
05/03:00pm 30.1 - - - - NNW 30 33 16 18 1002.9 1003.0 -
05/02:30pm 30.1 - - - - NW 30 35 16 19 1002.8 - -
05/02:00pm 30.2 - - - - NW 33 33 18 18 1002.9 1003.0 -
05/01:30pm 30.4 - - - - NW 32 37 17 20 1003.4 - -
05/01:00pm 30.0 - - - - NW 32 37 17 20 1003.9 1003.9 -
05/12:30pm 30.1 - - - - NW 33 37 18 20 1004.2 - -
05/12:00pm 29.9 - - - - NW 28 35 15 19 1004.3 1004.3 -
05/11:30am 29.8 - - - - NW 26 30 14 16 1004.5 - -
05/11:00am 29.5 - - - - WNW 28 30 15 16 1004.7 1004.9 -
05/10:30am 29.0 - - - - WNW 26 33 14 18 1005.1 - -
05/10:00am 28.9 - - - - NW 35 35 19 19 1005.3 1005.4 -
05/09:30am 30.2 - - - - NW 32 39 17 21 1005.4 - -
05/09:00am 30.4 - - - - NW 30 39 16 21 1005.2 1005.0 -
05/08:30am 30.3 - - - - NW 32 35 17 19 1005.0 - -
05/08:00am 30.1 - - - - NW 32 39 17 21 1004.7 1004.7 -
05/07:30am 29.9 - - - - NW 33 39 18 21 1004.4 - -
05/07:00am 29.8 - - - - NW 37 41 20 22 1004.3 1004.2 -
05/06:00am 29.6 - - - - NW 35 - 19 - - 1003.7 -
05/05:00am 29.5 - - - - NW 35 37 19 20 1003.3 1003.2 -
05/04:30am 29.6 - - - - NNW 33 37 18 20 1002.9 - -
05/04:00am 29.5 - - - - NNW 35 39 19 21 1002.9 1002.9 -
05/03:30am 29.5 - - - - NNW 33 39 18 21 1002.7 - -
05/03:00am 29.4 - - - - NW 32 39 17 21 1002.9 1003.1 -
05/02:30am 29.6 - - - - NNW 32 35 17 19 1003.2 - -
05/02:00am 29.5 - - - - NNW 35 37 19 20 1003.5 1003.7 -
05/01:30am 29.6 - - - - NNW 35 41 19 22 1004.0 - -
05/01:00am 29.5 - - - - NNW 37 41 20 22 1004.3 1004.4 -
05/12:30am 29.5 - - - - N 35 41 19 22 1004.6 - -
05/12:00am 29.6 - - - - N 32 39 17 21 1004.7 1004.8 -
 
Date/Time
EST
Temp
°C
App
Temp
°C
Dew
Point
Rel
Hum
%
Delta-T
°C
Wind Press
QNH
hPa
Press
MSL
hPa
Rain
since 9 am
mm
Dir
 
Spd
km/h
Gust
km/h
Spd
kts
Gust
kts
04/11:30pm 29.5 - - - - N 32 35 17 19 1005.1 - -
04/11:00pm 29.8 - - - - N 30 35 16 19 1005.5 1005.6 -
04/10:30pm 29.7 - - - - N 30 33 16 18 1005.9 - -
04/10:00pm 29.8 - - - - N 33 35 18 19 1005.5 1005.6 -
04/09:30pm 29.9 - - - - N 30 33 16 18 1005.4 - -
04/09:00pm 29.7 - - - - N 30 37 16 20 1005.6 1005.6 -
04/08:30pm 29.6 - - - - N 28 32 15 17 1005.6 - -
04/08:00pm 29.6 - - - - NNW 26 32 14 17 1005.2 1005.1 -
04/07:30pm 29.7 - - - - NNW 26 30 14 16 1004.9 - -
04/07:00pm 29.7 - - - - N 24 30 13 16 1004.5 1004.2 -
04/06:30pm 29.8 - - - - NNW 22 28 12 15 1004.0 - -
04/06:00pm 29.8 - - - - NNW 26 32 14 17 1004.2 1004.1 -
04/05:30pm 30.0 - - - - NNW 26 30 14 16 1004.0 - -
04/05:00pm 29.9 - - - - NNW 28 32 15 17 1003.8 1003.8 -
04/04:30pm 30.1 - - - - NNW 28 32 15 17 1003.9 - -
04/04:00pm 29.9 - - - - NW 28 32 15 17 1003.9 1003.8 -
04/03:30pm 29.5 - - - - NW 26 30 14 16 1003.8 - -
04/03:00pm 29.7 - - - - NW 30 33 16 18 1004.0 1004.3 -
04/02:30pm 29.6 - - - - WNW 30 33 16 18 1004.3 - -
04/02:00pm 29.6 - - - - WNW 24 - 13 - - 1004.9 -
04/01:30pm 29.5 - - - - NW 28 30 15 16 1005.3 - -
04/01:00pm 29.4 - - - - WNW 28 32 15 17 1005.7 1006.0 -
04/12:30pm 29.6 - - - - NW 24 30 13 16 1006.3 - -
04/12:00pm 29.2 - - - - NW 24 28 13 15 1006.2 1006.3 -
04/11:30am 29.2 - - - - NW 26 30 14 16 1006.2 - -
04/11:00am 29.7 - - - - NW 28 32 15 17 1006.3 1006.6 -
04/10:30am 29.7 - - - - NW 28 32 15 17 1006.7 - -
04/10:00am 29.7 - - - - NNW 26 28 14 15 1007.0 1006.9 -
04/09:30am 29.3 - - - - NNW 22 26 12 14 1006.8 - -
04/09:00am 27.9 - - - - NW 30 30 16 16 1007.0 1006.9 -
04/08:30am 28.6 - - - - N 24 26 13 14 1006.8 - -
04/08:00am 29.6 - - - - NNW 28 30 15 16 1006.5 1006.7 -
04/07:30am 29.6 - - - - NW 24 30 13 16 1006.6 - -
04/07:00am 29.7 - - - - NNW 28 33 15 18 1006.8 1006.8 -
04/06:30am 29.5 - - - - NNW 28 32 15 17 1006.6 - -
04/06:00am 29.5 - - - - NNW 26 32 14 17 1006.3 1006.2 -
04/05:30am 29.4 - - - - NNW 30 35 16 19 1006.3 - -
04/05:00am 29.6 - - - - NNW 30 33 16 18 1006.3 1006.2 -
04/04:30am 29.3 - - - - NNW 32 35 17 19 1006.1 - -
04/04:00am 29.4 - - - - NW 32 35 17 19 1005.7 1005.7 -
04/03:30am 29.4 - - - - NW 32 37 17 20 1005.7 - -
04/03:00am 29.5 - - - - NNW 28 32 15 17 1005.7 1005.7 -
04/02:30am 29.4 - - - - NNW 28 32 15 17 1005.8 - -
04/02:00am 29.4 - - - - NNW 26 30 14 16 1005.9 1006.1 -
04/01:30am 29.3 - - - - NNW 24 28 13 15 1006.2 - -
04/01:00am 29.3 - - - - NNW 24 28 13 15 1006.4 1006.4 -
04/12:30am 29.5 - - - - NNW 24 26 13 14 1006.5 - -
04/12:00am 29.5 - - - - NNW 26 28 14 15 1007.0 1007.0 -
 
Date/Time
EST
Temp
°C
App
Temp
°C
Dew
Point
Rel
Hum
%
Delta-T
°C
Wind Press
QNH
hPa
Press
MSL
hPa
Rain
since 9 am
mm
Dir
 
Spd
km/h
Gust
km/h
Spd
kts
Gust
kts
03/11:30pm 29.5 - - - - NNW 26 30 14 16 1007.3 - -
03/11:00pm 29.5 - - - - N 26 30 14 16 1007.5 1007.4 -
03/10:30pm 29.4 - - - - N 28 32 15 17 1007.4 - -
03/10:00pm 29.4 - - - - N 28 33 15 18 1007.0 1007.1 -
03/09:30pm 29.5 - - - - NNW 28 32 15 17 1007.0 - -

Other Formats:

Comma delimited format used in spreadsheet applications
http://www.bom.gov.au/fwo/IDQ60801/IDQ60801.95288.axf

JavaScript Object Notation format (JSON) in row-major order
http://www.bom.gov.au/fwo/IDQ60801/IDQ60801.95288.json